createdAt,value
2018-04-01T00:01:50.999Z,2.90
2018-04-01T00:04:17.112Z,3.00
2018-04-01T00:06:43.231Z,2.90
2018-04-01T00:09:09.420Z,2.90
2018-04-01T00:11:36.291Z,2.90
2018-04-01T00:14:02.451Z,2.90
2018-04-01T00:16:28.533Z,2.80
2018-04-01T00:18:54.713Z,2.80
2018-04-01T00:21:20.826Z,2.70
2018-04-01T00:23:47.939Z,2.80
2018-04-01T00:26:14.165Z,2.80
2018-04-01T00:28:40.292Z,2.80
2018-04-01T00:31:06.421Z,2.90
2018-04-01T00:33:32.547Z,2.90
2018-04-01T00:35:58.675Z,2.90
2018-04-01T00:38:24.835Z,3.00
2018-04-01T00:40:50.982Z,3.10
2018-04-01T00:43:17.080Z,3.00
2018-04-01T00:45:43.200Z,3.00
2018-04-01T00:48:09.308Z,3.10
2018-04-01T00:50:35.408Z,3.00
2018-04-01T00:53:02.272Z,3.00
2018-04-01T00:55:28.399Z,2.90
2018-04-01T00:57:54.512Z,3.10
2018-04-01T01:00:20.642Z,3.10
2018-04-01T01:02:46.770Z,3.10
2018-04-01T01:05:13.080Z,3.00
2018-04-01T01:07:39.951Z,3.10
2018-04-01T01:10:06.101Z,3.10
2018-04-01T01:12:32.200Z,3.20
2018-04-01T01:14:58.327Z,3.30
2018-04-01T01:17:24.488Z,3.20
2018-04-01T01:19:50.604Z,3.10
2018-04-01T01:22:16.764Z,3.10
2018-04-01T01:24:42.902Z,3.20
2018-04-01T01:27:09.845Z,3.20
2018-04-01T01:29:36.787Z,3.30
2018-04-01T01:32:02.873Z,3.30
2018-04-01T01:34:29.007Z,3.20
2018-04-01T01:36:55.851Z,3.10
2018-04-01T01:39:22.032Z,3.10
2018-04-01T01:41:48.904Z,3.10
2018-04-01T01:44:15.074Z,3.10
2018-04-01T01:46:41.203Z,3.10
2018-04-01T01:49:07.389Z,3.10
2018-04-01T01:51:33.536Z,3.00
2018-04-01T01:53:59.623Z,3.10
2018-04-01T01:56:25.738Z,3.10
2018-04-01T01:58:52.582Z,3.10
2018-04-01T02:01:19.474Z,3.10
2018-04-01T02:03:45.581Z,3.00
2018-04-01T02:06:11.840Z,3.00
2018-04-01T02:08:37.973Z,3.00
2018-04-01T02:11:04.094Z,3.00
2018-04-01T02:13:30.231Z,3.00
2018-04-01T02:15:56.370Z,3.00
2018-04-01T02:18:23.237Z,3.10
2018-04-01T02:20:49.347Z,3.10
2018-04-01T02:23:16.270Z,3.10
2018-04-01T02:25:42.365Z,3.00
2018-04-01T02:28:08.479Z,3.00
2018-04-01T02:30:34.619Z,3.10
2018-04-01T02:33:00.744Z,2.90
2018-04-01T02:35:26.930Z,2.90
2018-04-01T02:37:53.770Z,3.00
2018-04-01T02:40:20.726Z,3.00
2018-04-01T02:42:46.882Z,3.00
2018-04-01T02:45:13.043Z,3.00
2018-04-01T02:47:39.153Z,3.10
2018-04-01T02:50:05.345Z,3.10
2018-04-01T02:52:31.484Z,3.10
2018-04-01T02:54:57.609Z,3.00
2018-04-01T02:57:23.741Z,2.90
2018-04-01T02:59:49.865Z,2.80
2018-04-01T03:02:16.019Z,2.80
2018-04-01T03:04:42.198Z,2.80
2018-04-01T03:07:08.349Z,2.90
2018-04-01T03:09:34.506Z,2.90
2018-04-01T03:12:00.692Z,2.90
2018-04-01T03:14:27.540Z,3.00
2018-04-01T03:16:53.708Z,3.00
2018-04-01T03:19:19.820Z,3.10
2018-04-01T03:21:46.028Z,3.00
2018-04-01T03:24:12.171Z,3.00
2018-04-01T03:26:38.317Z,3.00
2018-04-01T03:29:04.433Z,2.90
2018-04-01T03:31:30.594Z,2.70
2018-04-01T03:33:57.469Z,2.60
2018-04-01T03:36:23.625Z,2.60
2018-04-01T03:38:49.727Z,2.70
2018-04-01T03:41:15.911Z,2.70
2018-04-01T03:43:42.050Z,2.60
2018-04-01T03:46:08.964Z,2.40
2018-04-01T03:48:35.110Z,2.40
2018-04-01T03:51:01.237Z,2.40
2018-04-01T03:53:27.325Z,2.50
2018-04-01T03:55:53.452Z,2.50
2018-04-01T03:58:19.568Z,2.50
2018-04-01T04:00:45.692Z,2.50
2018-04-01T04:03:11.866Z,2.50
2018-04-01T04:05:37.952Z,2.50
2018-04-01T04:08:04.157Z,2.40
2018-04-01T04:10:30.344Z,2.40
2018-04-01T04:12:56.784Z,2.30
2018-04-01T04:15:23.642Z,2.40
2018-04-01T04:17:50.445Z,2.40
2018-04-01T04:20:16.558Z,2.40
2018-04-01T04:22:42.669Z,2.50
2018-04-01T04:25:08.806Z,2.40
2018-04-01T04:27:34.933Z,2.40
2018-04-01T04:30:01.436Z,2.50
2018-04-01T04:32:27.548Z,2.50
2018-04-01T04:34:54.396Z,2.60
2018-04-01T04:37:21.305Z,2.60
2018-04-01T04:39:47.485Z,2.60
2018-04-01T04:42:13.629Z,2.60
2018-04-01T04:44:39.744Z,2.60
2018-04-01T04:47:05.881Z,2.70
2018-04-01T04:49:32.066Z,2.60
2018-04-01T04:51:58.937Z,2.60
2018-04-01T04:54:25.075Z,2.60
2018-04-01T04:56:51.234Z,2.50
2018-04-01T04:59:17.365Z,2.50
2018-04-01T05:01:44.213Z,2.50
2018-04-01T05:04:10.394Z,2.50
2018-04-01T05:06:36.517Z,2.60
2018-04-01T05:09:02.705Z,2.60
2018-04-01T05:11:28.878Z,2.70
2018-04-01T05:13:54.989Z,2.80
2018-04-01T05:16:21.506Z,2.60
2018-04-01T05:18:48.464Z,2.80
2018-04-01T05:21:15.352Z,2.80
2018-04-01T05:23:41.505Z,2.80
2018-04-01T05:26:07.668Z,2.90
2018-04-01T05:28:33.842Z,2.70
2018-04-01T05:30:59.978Z,2.80
2018-04-01T05:33:26.110Z,2.70
2018-04-01T05:35:52.276Z,2.80
2018-04-01T05:38:18.372Z,2.80
2018-04-01T05:40:44.551Z,2.70
2018-04-01T05:43:10.707Z,2.80
2018-04-01T05:45:36.864Z,2.80
2018-04-01T05:48:03.775Z,2.60
2018-04-01T05:50:29.969Z,2.60
2018-04-01T05:52:56.169Z,2.40
2018-04-01T05:55:23.086Z,2.50
2018-04-01T05:57:49.207Z,2.50
2018-04-01T06:00:15.332Z,2.70
2018-04-01T06:02:41.459Z,2.70
2018-04-01T06:05:07.581Z,2.70
2018-04-01T06:07:33.717Z,2.60
2018-04-01T06:09:59.873Z,2.40
2018-04-01T06:12:26.751Z,2.30
2018-04-01T06:14:52.923Z,2.30
2018-04-01T06:17:19.067Z,2.40
2018-04-01T06:19:45.185Z,2.40
2018-04-01T06:22:11.326Z,2.50
2018-04-01T06:24:38.248Z,2.40
2018-04-01T06:27:04.366Z,2.40
2018-04-01T06:29:30.522Z,2.40
2018-04-01T06:31:57.382Z,2.60
2018-04-01T06:34:23.770Z,2.60
2018-04-01T06:36:49.908Z,2.60
2018-04-01T06:39:16.032Z,2.70
2018-04-01T06:41:42.948Z,2.70
2018-04-01T06:44:09.084Z,2.70
2018-04-01T06:46:36.227Z,2.70
2018-04-01T06:49:02.380Z,2.70
2018-04-01T06:51:28.541Z,2.80
2018-04-01T06:53:54.705Z,3.10
2018-04-01T06:56:20.847Z,3.20
2018-04-01T06:58:46.954Z,3.00
2018-04-01T07:01:13.094Z,3.20
2018-04-01T07:03:39.225Z,3.40
2018-04-01T07:06:05.375Z,3.10
2018-04-01T07:08:32.293Z,3.20
2018-04-01T07:10:58.435Z,3.20
2018-04-01T07:13:24.641Z,3.10
2018-04-01T07:15:50.753Z,3.00
2018-04-01T07:18:16.890Z,3.20
2018-04-01T07:20:43.014Z,3.10
2018-04-01T07:23:09.131Z,3.20
2018-04-01T07:25:35.319Z,3.10
2018-04-01T07:28:02.215Z,3.30
2018-04-01T07:30:28.344Z,3.30
2018-04-01T07:32:54.473Z,3.30
2018-04-01T07:35:20.607Z,3.10
2018-04-01T07:37:46.772Z,3.20
2018-04-01T07:40:13.632Z,3.50
2018-04-01T07:42:39.795Z,3.40
2018-04-01T07:45:05.902Z,3.40
2018-04-01T07:47:32.028Z,3.50
2018-04-01T07:49:58.141Z,3.40
2018-04-01T07:52:24.272Z,3.30
2018-04-01T07:54:50.421Z,3.40
2018-04-01T07:57:16.542Z,3.50
2018-04-01T07:59:42.664Z,3.70
2018-04-01T08:02:08.791Z,3.50
2018-04-01T08:04:34.932Z,3.30
2018-04-01T08:07:01.032Z,3.20
2018-04-01T08:09:27.168Z,3.20
2018-04-01T08:11:53.304Z,3.20
2018-04-01T08:14:19.436Z,3.40
2018-04-01T08:16:45.604Z,3.60
2018-04-01T08:19:12.490Z,3.70
2018-04-01T08:21:38.616Z,3.60
2018-04-01T08:24:04.778Z,3.70
2018-04-01T08:26:30.935Z,3.60
2018-04-01T08:28:57.807Z,3.60
2018-04-01T08:31:23.933Z,3.60
2018-04-01T08:33:50.059Z,3.80
2018-04-01T08:36:16.186Z,3.70
2018-04-01T08:38:42.309Z,3.70
2018-04-01T08:41:08.450Z,3.70
2018-04-01T08:43:34.583Z,3.70
2018-04-01T08:46:01.065Z,3.80
2018-04-01T08:48:27.530Z,4.00
2018-04-01T08:50:53.645Z,4.20
2018-04-01T08:53:20.490Z,3.80
2018-04-01T08:55:47.372Z,3.70
2018-04-01T08:58:13.547Z,3.70
2018-04-01T09:00:40.446Z,3.80
2018-04-01T09:03:06.584Z,3.70
2018-04-01T09:05:32.692Z,3.80
2018-04-01T09:07:58.816Z,3.60
2018-04-01T09:10:25.044Z,3.40
2018-04-01T09:12:51.152Z,3.70
2018-04-01T09:15:17.270Z,3.70
2018-04-01T09:17:43.397Z,3.60
2018-04-01T09:20:09.557Z,3.90
2018-04-01T09:22:35.731Z,3.80
2018-04-01T09:25:02.629Z,3.80
2018-04-01T09:27:28.790Z,3.80
2018-04-01T09:29:54.922Z,3.80
2018-04-01T09:32:21.049Z,3.60
2018-04-01T09:34:47.144Z,3.70
2018-04-01T09:37:13.248Z,3.60
2018-04-01T09:39:39.365Z,3.80
2018-04-01T09:42:05.482Z,3.60
2018-04-01T09:44:31.627Z,3.60
2018-04-01T09:46:57.761Z,3.50
2018-04-01T09:49:23.903Z,3.40
2018-04-01T09:51:50.033Z,3.40
2018-04-01T09:54:16.271Z,3.50
2018-04-01T09:56:42.421Z,3.40
2018-04-01T09:59:08.495Z,3.50
2018-04-01T10:01:35.656Z,3.50
2018-04-01T10:04:01.969Z,3.50
2018-04-01T10:06:28.248Z,3.50
2018-04-01T10:08:54.548Z,3.70
2018-04-01T10:11:20.903Z,3.80
2018-04-01T10:13:47.208Z,3.70
2018-04-01T10:16:13.737Z,3.90
2018-04-01T10:18:40.024Z,3.90
2018-04-01T10:21:07.155Z,4.10
2018-04-01T10:23:33.508Z,4.10
2018-04-01T10:26:00.544Z,4.20
2018-04-01T10:28:26.824Z,4.30
2018-04-01T10:30:53.165Z,4.10
2018-04-01T10:33:19.447Z,3.80
2018-04-01T10:35:46.470Z,4.20
2018-04-01T10:38:12.769Z,4.10
2018-04-01T10:40:39.880Z,3.90
2018-04-01T10:43:06.867Z,4.40
2018-04-01T10:45:33.227Z,4.30
2018-04-01T10:47:59.526Z,4.60
2018-04-01T10:50:25.795Z,4.70
2018-04-01T10:52:52.108Z,4.90
2018-04-01T10:55:18.248Z,5.00
2018-04-01T10:57:44.364Z,4.60
2018-04-01T11:00:10.452Z,4.70
2018-04-01T11:02:36.584Z,4.50
2018-04-01T11:05:02.713Z,4.40
2018-04-01T11:07:28.838Z,4.30
2018-04-01T11:09:54.943Z,4.30
2018-04-01T11:12:21.818Z,4.50
2018-04-01T11:14:47.949Z,4.50
2018-04-01T11:17:14.123Z,4.50
2018-04-01T11:19:40.991Z,4.40
2018-04-01T11:22:07.120Z,4.40
2018-04-01T11:24:33.278Z,4.30
2018-04-01T11:26:59.409Z,4.40
2018-04-01T11:29:25.575Z,4.40
2018-04-01T11:31:52.488Z,4.80
2018-04-01T11:34:18.600Z,4.80
2018-04-01T11:36:44.721Z,5.00
2018-04-01T11:39:10.834Z,4.90
2018-04-01T11:41:36.946Z,4.50
2018-04-01T11:44:03.088Z,4.50
2018-04-01T11:46:29.261Z,4.40
2018-04-01T11:48:55.419Z,4.40
2018-04-01T11:51:22.259Z,4.30
2018-04-01T11:53:49.179Z,4.50
2018-04-01T11:56:15.279Z,4.50
2018-04-01T11:58:42.157Z,4.40
2018-04-01T12:01:09.005Z,4.50
2018-04-01T12:03:35.855Z,4.70
2018-04-01T12:06:02.722Z,4.90
2018-04-01T12:08:28.826Z,4.90
2018-04-01T12:10:55.718Z,5.40
2018-04-01T12:13:21.820Z,5.40
2018-04-01T12:15:48.019Z,5.20
2018-04-01T12:18:14.932Z,5.30
2018-04-01T12:20:41.181Z,5.30
2018-04-01T12:23:07.300Z,5.60
2018-04-01T12:25:33.427Z,5.60
2018-04-01T12:27:59.675Z,5.90
2018-04-01T12:30:26.551Z,5.60
2018-04-01T12:32:52.662Z,5.50
2018-04-01T12:35:19.512Z,7.40
2018-04-01T12:37:45.725Z,7.40
2018-04-01T12:40:12.585Z,8.70
2018-04-01T12:42:38.719Z,8.70
2018-04-01T12:45:04.855Z,8.20
2018-04-01T12:47:30.939Z,7.30
2018-04-01T12:49:57.791Z,6.30
2018-04-01T12:52:24.702Z,6.40
2018-04-01T12:54:51.000Z,6.30
2018-04-01T12:57:17.124Z,6.30
2018-04-01T12:59:43.248Z,6.40
2018-04-01T13:02:09.404Z,6.50
2018-04-01T13:04:35.538Z,6.30
2018-04-01T13:07:03.172Z,6.10
2018-04-01T13:09:33.758Z,6.10
2018-04-01T13:11:59.915Z,6.10
2018-04-01T13:14:26.114Z,6.30
2018-04-01T13:16:52.975Z,6.00
2018-04-01T13:19:19.092Z,6.00
2018-04-01T13:21:45.938Z,5.80
2018-04-01T13:24:12.885Z,5.60
2018-04-01T13:26:38.975Z,5.60
2018-04-01T13:29:05.157Z,5.60
2018-04-01T13:31:31.243Z,5.40
2018-04-01T13:33:58.188Z,5.80
2018-04-01T13:36:24.315Z,5.80
2018-04-01T13:38:50.436Z,5.90
2018-04-01T13:41:16.542Z,5.90
2018-04-01T13:43:42.672Z,5.60
2018-04-01T13:46:08.845Z,5.50
2018-04-01T13:48:34.987Z,5.60
2018-04-01T13:51:01.450Z,5.70
2018-04-01T13:53:27.596Z,5.70
2018-04-01T13:55:53.758Z,5.80
2018-04-01T13:58:19.880Z,5.70
2018-04-01T14:00:48.187Z,5.30
2018-04-01T14:03:14.301Z,5.30
2018-04-01T14:05:40.428Z,5.40
2018-04-01T14:08:06.853Z,5.50
2018-04-01T14:10:32.995Z,5.90
2018-04-01T14:12:59.105Z,6.40
2018-04-01T14:15:25.269Z,6.70
2018-04-01T14:17:51.407Z,6.50
2018-04-01T14:20:18.438Z,6.20
2018-04-01T14:22:44.671Z,6.00
2018-04-01T14:25:10.832Z,6.30
2018-04-01T14:27:36.995Z,6.70
2018-04-01T14:30:03.167Z,6.50
2018-04-01T14:32:29.319Z,6.50
2018-04-01T14:34:55.448Z,6.40
2018-04-01T14:37:21.575Z,6.40
2018-04-01T14:39:48.500Z,6.20
2018-04-01T14:42:14.688Z,6.10
2018-04-01T14:44:40.804Z,6.30
2018-04-01T14:47:07.026Z,6.10
2018-04-01T14:49:33.384Z,5.80
2018-04-01T14:51:59.516Z,5.80
2018-04-01T14:54:25.620Z,5.90
2018-04-01T14:56:51.760Z,5.80
2018-04-01T14:59:17.929Z,5.70
2018-04-01T15:01:44.114Z,5.70
2018-04-01T15:04:10.289Z,5.80
2018-04-01T15:06:36.428Z,5.80
2018-04-01T15:09:03.302Z,5.60
2018-04-01T15:11:29.561Z,5.60
2018-04-01T15:13:55.688Z,5.50
2018-04-01T15:16:21.843Z,5.60
2018-04-01T15:18:47.951Z,5.40
2018-04-01T15:21:14.069Z,5.40
2018-04-01T15:23:40.214Z,5.50
2018-04-01T15:26:08.170Z,5.40
2018-04-01T15:28:34.284Z,5.50
2018-04-01T15:31:00.423Z,5.50
2018-04-01T15:33:26.543Z,5.40
2018-04-01T15:35:52.710Z,5.30
2018-04-01T15:38:19.614Z,5.30
2018-04-01T15:40:46.042Z,5.30
2018-04-01T15:43:12.423Z,5.20
2018-04-01T15:45:38.516Z,5.30
2018-04-01T15:48:04.614Z,5.20
2018-04-01T15:50:31.796Z,5.20
2018-04-01T15:52:57.942Z,5.30
2018-04-01T15:55:24.806Z,5.30
2018-04-01T15:57:50.963Z,5.30
2018-04-01T16:00:17.062Z,5.30
2018-04-01T16:02:43.952Z,5.40
2018-04-01T16:05:10.887Z,5.40
2018-04-01T16:07:37.041Z,5.40
2018-04-01T16:10:03.145Z,5.40
2018-04-01T16:12:30.457Z,5.30
2018-04-01T16:14:57.299Z,5.20
2018-04-01T16:17:24.407Z,5.20
2018-04-01T16:19:50.539Z,5.10
2018-04-01T16:22:17.467Z,5.00
2018-04-01T16:24:43.570Z,5.00
2018-04-01T16:27:10.079Z,4.90
2018-04-01T16:29:38.509Z,4.90
2018-04-01T16:32:04.708Z,4.90
2018-04-01T16:34:32.327Z,5.00
2018-04-01T16:36:58.504Z,5.00
2018-04-01T16:39:25.230Z,5.10
2018-04-01T16:41:51.434Z,5.10
2018-04-01T16:44:17.571Z,5.00
2018-04-01T16:46:44.443Z,4.90
2018-04-01T16:49:10.573Z,4.90
2018-04-01T16:51:36.707Z,5.00
2018-04-01T16:54:02.864Z,5.00
2018-04-01T16:56:28.949Z,5.00
2018-04-01T16:58:55.100Z,5.00
2018-04-01T17:01:21.904Z,5.00
2018-04-01T17:03:48.095Z,4.80
2018-04-01T17:06:14.216Z,4.90
2018-04-01T17:08:40.367Z,4.90
2018-04-01T17:11:07.255Z,4.90
2018-04-01T17:13:33.653Z,4.90
2018-04-01T17:16:00.498Z,5.00
2018-04-01T17:18:26.656Z,4.90
2018-04-01T17:20:52.812Z,4.90
2018-04-01T17:23:18.935Z,4.80
2018-04-01T17:25:45.092Z,4.80
2018-04-01T17:28:11.267Z,4.70
2018-04-01T17:30:37.407Z,4.70
2018-04-01T17:33:03.534Z,4.70
2018-04-01T17:35:29.704Z,4.70
2018-04-01T17:37:56.618Z,4.60
2018-04-01T17:40:23.072Z,4.60
2018-04-01T17:42:50.004Z,4.70
2018-04-01T17:45:16.927Z,4.70
2018-04-01T17:47:43.043Z,4.70
2018-04-01T17:50:09.185Z,4.60
2018-04-01T17:52:35.294Z,4.50
2018-04-01T17:55:01.455Z,4.40
2018-04-01T17:57:27.879Z,4.40
2018-04-01T17:59:53.973Z,4.40
2018-04-01T18:02:20.113Z,4.30
2018-04-01T18:04:46.228Z,4.30
2018-04-01T18:07:12.694Z,4.30
2018-04-01T18:09:38.831Z,4.30
2018-04-01T18:12:05.084Z,4.30
2018-04-01T18:14:32.003Z,4.40
2018-04-01T18:16:58.899Z,4.30
2018-04-01T18:19:25.199Z,4.30
2018-04-01T18:21:51.326Z,4.40
2018-04-01T18:24:17.556Z,4.40
2018-04-01T18:26:44.430Z,4.30
2018-04-01T18:29:10.585Z,4.30
2018-04-01T18:31:36.796Z,4.30
2018-04-01T18:34:02.984Z,4.30
2018-04-01T18:36:29.124Z,4.20
2018-04-01T18:38:56.118Z,4.10
2018-04-01T18:41:22.275Z,4.10
2018-04-01T18:43:49.482Z,4.00
2018-04-01T18:46:15.697Z,4.00
2018-04-01T18:48:41.880Z,4.00
2018-04-01T18:51:08.157Z,4.00
2018-04-01T18:53:34.455Z,4.00
2018-04-01T18:56:01.012Z,3.90
2018-04-01T18:58:27.259Z,3.80
2018-04-01T19:00:53.458Z,3.80
2018-04-01T19:03:19.610Z,3.80
2018-04-01T19:05:45.763Z,3.80
2018-04-01T19:08:12.036Z,3.80
2018-04-01T19:10:38.946Z,3.70
2018-04-01T19:13:05.109Z,3.70
2018-04-01T19:15:32.063Z,3.80
2018-04-01T19:17:58.513Z,3.80
2018-04-01T19:20:25.201Z,3.80
2018-04-01T19:22:51.664Z,3.80
2018-04-01T19:25:18.892Z,3.80
2018-04-01T19:27:45.590Z,3.80
2018-04-01T19:30:13.068Z,3.90
2018-04-01T19:32:39.400Z,4.00
2018-04-01T19:35:06.261Z,4.10
2018-04-01T19:37:32.589Z,4.00
2018-04-01T19:39:58.905Z,4.10
2018-04-01T19:42:25.347Z,4.10
2018-04-01T19:44:51.693Z,4.10
2018-04-01T19:47:17.994Z,4.10
2018-04-01T19:49:44.381Z,4.00
2018-04-01T19:52:11.417Z,4.10
2018-04-01T19:54:38.607Z,4.20
2018-04-01T19:57:05.901Z,4.20
2018-04-01T19:59:32.236Z,4.20
2018-04-01T20:01:58.590Z,4.20
2018-04-01T20:04:25.673Z,4.20
2018-04-01T20:06:51.986Z,4.10
2018-04-01T20:09:18.320Z,4.10
2018-04-01T20:11:44.664Z,4.10
2018-04-01T20:14:10.970Z,4.10
2018-04-01T20:16:37.994Z,4.20
2018-04-01T20:19:04.414Z,4.10
2018-04-01T20:21:35.595Z,4.20
2018-04-01T20:24:02.680Z,4.30
2018-04-01T20:26:29.172Z,4.20
2018-04-01T20:28:56.229Z,4.20
2018-04-01T20:31:23.289Z,4.30
2018-04-01T20:33:49.606Z,4.20
2018-04-01T20:36:16.769Z,4.30
2018-04-01T20:38:43.084Z,4.30
2018-04-01T20:41:10.130Z,4.30
2018-04-01T20:43:37.159Z,4.40
2018-04-01T20:46:03.481Z,4.40
2018-04-01T20:48:29.819Z,4.30
2018-04-01T20:50:56.180Z,4.40
2018-04-01T20:53:23.282Z,4.30
2018-04-01T20:55:49.625Z,4.30
2018-04-01T20:58:16.904Z,4.30
2018-04-01T21:00:43.961Z,4.30
2018-04-01T21:03:10.984Z,4.30
2018-04-01T21:05:37.312Z,4.30
2018-04-01T21:08:04.384Z,4.30
2018-04-01T21:10:31.427Z,4.20
2018-04-01T21:12:58.504Z,4.30
2018-04-01T21:15:24.881Z,4.20
2018-04-01T21:17:51.205Z,4.30
2018-04-01T21:20:17.493Z,4.20
2018-04-01T21:22:43.795Z,4.20
2018-04-01T21:25:10.076Z,4.20
2018-04-01T21:27:36.425Z,4.20
2018-04-01T21:30:02.763Z,4.20
2018-04-01T21:32:29.098Z,4.20
2018-04-01T21:34:55.406Z,4.20
2018-04-01T21:37:21.709Z,4.20
2018-04-01T21:39:48.002Z,4.10
2018-04-01T21:42:14.348Z,4.10
2018-04-01T21:44:41.488Z,4.00
2018-04-01T21:47:07.778Z,4.00
2018-04-01T21:49:34.471Z,4.00
2018-04-01T21:52:01.517Z,3.80
2018-04-01T21:54:28.554Z,3.70
2018-04-01T21:56:54.870Z,3.70
2018-04-01T21:59:21.136Z,3.70
2018-04-01T22:01:47.452Z,3.70
2018-04-01T22:04:14.591Z,3.80
2018-04-01T22:06:40.937Z,3.80
2018-04-01T22:09:07.967Z,3.80
2018-04-01T22:11:34.299Z,3.80
2018-04-01T22:14:00.583Z,3.90
2018-04-01T22:16:26.876Z,3.80
2018-04-01T22:18:53.907Z,3.90
2018-04-01T22:21:20.180Z,3.90
2018-04-01T22:23:46.508Z,4.00
2018-04-01T22:26:12.799Z,3.90
2018-04-01T22:28:39.146Z,4.00
2018-04-01T22:31:06.304Z,4.00
2018-04-01T22:33:33.331Z,4.00
2018-04-01T22:35:59.646Z,4.00
2018-04-01T22:38:25.950Z,3.90
2018-04-01T22:40:52.661Z,3.90
2018-04-01T22:43:19.669Z,3.90
2018-04-01T22:45:45.937Z,3.90
2018-04-01T22:48:12.977Z,3.80
2018-04-01T22:50:39.275Z,3.80
2018-04-01T22:53:05.629Z,3.90
2018-04-01T22:55:32.653Z,3.90
2018-04-01T22:57:58.983Z,3.90
2018-04-01T23:00:25.295Z,3.90
2018-04-01T23:02:51.593Z,4.00
2018-04-01T23:05:17.886Z,4.00
2018-04-01T23:07:44.229Z,3.90
2018-04-01T23:10:11.285Z,3.80
2018-04-01T23:12:38.305Z,3.80
2018-04-01T23:15:04.640Z,3.80
2018-04-01T23:17:30.957Z,3.80
2018-04-01T23:19:57.232Z,3.80
2018-04-01T23:22:24.252Z,3.80
2018-04-01T23:24:50.564Z,3.70
2018-04-01T23:27:16.825Z,3.70
2018-04-01T23:29:43.158Z,3.80
2018-04-01T23:32:10.244Z,3.60
2018-04-01T23:34:36.546Z,3.60
2018-04-01T23:37:03.572Z,3.50
2018-04-01T23:39:30.208Z,3.50
2018-04-01T23:41:56.518Z,3.50
2018-04-01T23:44:22.824Z,3.40
2018-04-01T23:46:49.116Z,3.30
2018-04-01T23:49:16.135Z,3.20
2018-04-01T23:51:42.459Z,3.20
2018-04-01T23:54:08.760Z,3.10
2018-04-01T23:56:35.053Z,3.10
2018-04-01T23:59:01.390Z,3.00
